チューク諸島 の空港の天気 - METARとTAF

チューク国際空港 ( PTKK / TKK ) - ミクロネシア連邦 チューク諸島
飛行場実況気象(Metar)
観測時間09/30 14:35 +10 (09/30 04:35 UTC)
風向・風速北 3m/s
視程2400m
天気現象しゅう雨
全天の8割程度の雲 雲底高度 不明
全天を覆う雲 雲底高度 240m
気温25℃
湿度89%
気圧1007hPa
METARPTKK 300435Z VRB05KT 1 1/2SM SHRA BKN000 OVC008CB 25/23 A2974 RMK RA BKN000 CB ALQDS
過去の天気等 Google飛行場航空写真 Wunderground天気予報

過去48時間のMETAR

飛行場予報(TAF)
発表時間: 9/30 09:20 +10 (9/29 23:20 UTC)
予報対象時間: 30日10時 +10 ~ 1日10時 +10
風向・風速不定 3m/s
視程10km以上
天気現象弱い雨
全天の4割程度の雲 雲底高度 430m
全天の8割程度の雲 雲底高度 1220m
全天を覆う雲 雲底高度 3050m
30日10時 +10 ~ 30日12時 +10 に一時的に
視程4830m
天気現象強いしゅう雨
全天の8割程度の雲 雲底高度 430m
全天を覆う雲 雲底高度 910m
30日12時 +10 から
風向・風速不定 3m/s
視程10km以上
天気現象周辺でしゅう雨
全天の4割程度の雲 雲底高度 490m
全天の8割程度の雲 雲底高度 1520m
全天を覆う雲 雲底高度 3660m
30日12時 +10 ~ 30日16時 +10 に一時的に
天気現象弱いしゅう雨
全天の4割程度の雲 雲底高度 430m
全天の8割程度の雲 雲底高度 910m
PTKK 292320Z 3000/3024 VRB06KT 6SM -RA SCT014 BKN040 OVC100
TEMPO 3000/3002 3SM +SHRA BKN014 OVC030
FM300200 VRB06KT P6SM VCSH SCT016 BKN050 OVC120
TEMPO 3002/3006 -SHRA SCT014 BKN030